createdAt,value
2019-04-30T00:04:07.339Z,99.90
2019-04-30T00:10:12.318Z,99.90
2019-04-30T00:16:16.873Z,99.90
2019-04-30T00:22:30.926Z,99.90
2019-04-30T00:35:55.161Z,99.90
2019-04-30T00:41:57.050Z,99.90
2019-04-30T00:48:01.720Z,99.90
2019-04-30T00:54:06.335Z,99.90
2019-04-30T01:00:16.956Z,99.90
2019-04-30T01:06:24.717Z,99.90
2019-04-30T01:12:30.967Z,99.90
2019-04-30T01:18:32.774Z,99.90
2019-04-30T01:24:38.677Z,99.90
2019-04-30T01:30:43.673Z,99.90
2019-04-30T01:36:52.088Z,99.90
2019-04-30T01:42:54.617Z,99.90
2019-04-30T01:48:59.175Z,99.90
2019-04-30T01:55:03.801Z,99.90
2019-04-30T02:01:10.066Z,99.90
2019-04-30T02:07:14.632Z,99.90
2019-04-30T02:13:19.173Z,99.90
2019-04-30T02:19:23.727Z,99.90
2019-04-30T02:25:29.568Z,99.90
2019-04-30T02:31:34.352Z,99.90
2019-04-30T02:37:43.572Z,99.90
2019-04-30T02:43:49.782Z,99.90
2019-04-30T02:50:11.396Z,99.90
2019-04-30T02:56:02.579Z,99.90
2019-04-30T03:02:11.476Z,99.90
2019-04-30T03:08:13.522Z,99.90
2019-04-30T03:14:20.093Z,99.90
2019-04-30T03:20:35.671Z,99.90
2019-04-30T03:26:34.830Z,99.90
2019-04-30T03:32:43.141Z,99.90
2019-04-30T03:38:45.691Z,99.90
2019-04-30T03:44:50.245Z,99.90
2019-04-30T03:50:57.018Z,99.90
2019-04-30T03:57:01.202Z,99.90
2019-04-30T04:03:06.043Z,99.90
2019-04-30T04:09:21.932Z,99.90
2019-04-30T04:15:24.346Z,99.90
2019-04-30T04:21:29.976Z,99.90
2019-04-30T04:27:34.817Z,99.90
2019-04-30T04:33:39.612Z,99.90
2019-04-30T04:39:44.310Z,99.90
2019-04-30T04:45:49.830Z,99.90
2019-04-30T04:51:54.793Z,99.90
2019-04-30T04:57:59.866Z,99.90
2019-04-30T05:04:04.851Z,99.90
2019-04-30T05:10:10.132Z,99.90
2019-04-30T05:16:14.672Z,99.90
2019-04-30T05:22:19.297Z,99.90
2019-04-30T05:28:23.869Z,99.90
2019-04-30T05:34:28.835Z,99.90
2019-04-30T05:40:33.580Z,99.90
2019-04-30T05:46:39.743Z,99.90
2019-04-30T05:52:44.496Z,99.90
2019-04-30T05:58:49.501Z,99.90
2019-04-30T06:04:54.145Z,99.90
2019-04-30T06:11:00.391Z,99.90
2019-04-30T06:17:09.900Z,99.90
2019-04-30T06:23:14.778Z,99.90
2019-04-30T06:29:19.567Z,99.90
2019-04-30T06:35:24.961Z,99.90
2019-04-30T06:41:29.737Z,99.90
2019-04-30T06:47:34.676Z,99.90
2019-04-30T06:53:39.293Z,99.90
2019-04-30T06:59:43.912Z,99.90
2019-04-30T07:05:48.899Z,99.90
2019-04-30T07:11:53.416Z,99.90
2019-04-30T07:17:59.092Z,99.90
2019-04-30T07:24:03.812Z,99.90
2019-04-30T07:30:09.939Z,99.90
2019-04-30T07:36:14.768Z,99.90
2019-04-30T07:42:19.401Z,99.90
2019-04-30T07:48:26.562Z,99.90
2019-04-30T07:54:30.263Z,99.90
2019-04-30T08:00:34.957Z,99.90
2019-04-30T08:06:39.946Z,99.90
2019-04-30T08:12:45.386Z,99.90
2019-04-30T08:18:50.380Z,99.90
2019-04-30T08:24:54.940Z,99.90
2019-04-30T08:30:59.489Z,99.90
2019-04-30T08:37:16.762Z,99.90
2019-04-30T08:43:10.414Z,99.90
2019-04-30T08:49:16.090Z,99.90
2019-04-30T08:55:22.449Z,99.90
2019-04-30T09:01:29.225Z,99.90
2019-04-30T09:07:33.728Z,99.90
2019-04-30T09:13:38.967Z,99.90
2019-04-30T09:19:43.674Z,99.90
2019-04-30T09:25:49.675Z,99.90
2019-04-30T09:31:54.488Z,99.90
2019-04-30T09:38:01.881Z,99.90
2019-04-30T09:44:05.750Z,99.90
2019-04-30T09:50:13.564Z,99.90
2019-04-30T09:56:19.342Z,99.90
2019-04-30T10:02:24.109Z,99.90
2019-04-30T10:08:30.735Z,99.90
2019-04-30T10:14:35.325Z,99.90
2019-04-30T10:20:43.775Z,99.90
2019-04-30T10:26:48.335Z,99.90
2019-04-30T10:32:52.873Z,99.90
2019-04-30T10:38:59.329Z,99.90
2019-04-30T10:45:05.389Z,99.90
2019-04-30T10:51:10.086Z,99.90
2019-04-30T10:57:14.708Z,99.90
2019-04-30T11:03:22.853Z,99.90
2019-04-30T11:09:30.691Z,99.90
2019-04-30T11:15:34.021Z,99.90
2019-04-30T11:21:38.770Z,99.90
2019-04-30T11:27:44.060Z,99.90
2019-04-30T11:33:49.276Z,99.90
2019-04-30T11:39:54.142Z,99.90
2019-04-30T11:46:22.328Z,99.90
2019-04-30T11:52:26.901Z,99.90
2019-04-30T11:58:31.495Z,99.90
2019-04-30T12:04:36.079Z,99.90
2019-04-30T12:10:45.050Z,99.90
2019-04-30T12:16:50.687Z,99.90
2019-04-30T12:22:55.367Z,99.60
2019-04-30T12:28:59.921Z,98.30
2019-04-30T12:35:07.215Z,97.80
2019-04-30T12:41:11.871Z,95.20
2019-04-30T12:47:19.292Z,92.30
2019-04-30T12:53:30.550Z,93.80
2019-04-30T12:59:35.644Z,92.00
2019-04-30T13:05:40.264Z,93.50
2019-04-30T13:11:45.259Z,90.10
2019-04-30T13:17:50.257Z,88.90
2019-04-30T13:23:54.802Z,90.00
2019-04-30T13:30:03.670Z,88.60
2019-04-30T13:36:08.770Z,85.60
2019-04-30T13:42:29.242Z,83.70
2019-04-30T13:48:33.622Z,90.30
2019-04-30T13:54:38.261Z,89.60
2019-04-30T14:00:42.885Z,90.00
2019-04-30T14:06:48.747Z,90.40
2019-04-30T14:12:57.992Z,86.10
2019-04-30T14:19:02.639Z,86.20
2019-04-30T14:25:08.323Z,87.70
2019-04-30T14:31:12.875Z,85.70
2019-04-30T14:37:17.442Z,84.00
2019-04-30T14:43:26.455Z,85.00
2019-04-30T14:49:36.084Z,87.70
2019-04-30T14:55:45.094Z,84.60
2019-04-30T15:01:54.091Z,84.80
2019-04-30T15:08:00.699Z,88.50
2019-04-30T15:14:05.613Z,85.10
2019-04-30T15:20:10.787Z,79.90
2019-04-30T15:26:22.115Z,83.70
2019-04-30T15:32:21.764Z,86.50
2019-04-30T15:38:44.289Z,85.60
2019-04-30T15:44:49.642Z,81.70
2019-04-30T15:50:54.479Z,78.40
2019-04-30T15:57:00.451Z,79.30
2019-04-30T16:03:16.162Z,77.40
2019-04-30T16:09:28.442Z,84.30
2019-04-30T16:15:32.950Z,89.80
2019-04-30T16:21:37.582Z,90.50
2019-04-30T16:27:42.138Z,85.80
2019-04-30T16:33:48.685Z,88.80
2019-04-30T16:39:53.043Z,90.20
2019-04-30T16:45:58.890Z,91.40
2019-04-30T16:52:03.713Z,92.80
2019-04-30T16:58:08.976Z,91.00
2019-04-30T17:04:19.216Z,92.40
2019-04-30T17:10:25.598Z,92.20
2019-04-30T17:16:30.308Z,93.50
2019-04-30T17:22:34.865Z,94.90
2019-04-30T17:28:39.435Z,95.30
2019-04-30T17:34:44.022Z,96.20
2019-04-30T17:40:49.625Z,98.40
2019-04-30T17:46:54.420Z,99.90
2019-04-30T17:53:00.651Z,99.90
2019-04-30T17:59:05.621Z,99.90
2019-04-30T18:05:11.387Z,99.90
2019-04-30T18:11:16.157Z,99.90
2019-04-30T18:17:22.270Z,99.90
2019-04-30T18:23:28.480Z,99.90
2019-04-30T18:29:33.111Z,99.90
2019-04-30T18:35:38.804Z,99.90
2019-04-30T18:41:43.557Z,99.90
2019-04-30T18:47:48.135Z,99.90
2019-04-30T18:53:52.699Z,99.90
2019-04-30T18:59:59.112Z,99.90
2019-04-30T19:06:05.343Z,99.90
2019-04-30T19:12:19.434Z,99.90
2019-04-30T19:18:28.265Z,99.90
2019-04-30T19:24:32.902Z,99.90
2019-04-30T19:30:38.993Z,99.90
2019-04-30T19:36:43.673Z,99.90
2019-04-30T19:42:50.749Z,99.90
2019-04-30T19:48:54.566Z,99.90
2019-04-30T19:54:59.129Z,99.90
2019-04-30T20:01:03.832Z,99.90
2019-04-30T20:07:08.830Z,99.90
2019-04-30T20:13:13.496Z,99.90
2019-04-30T20:19:18.077Z,99.90
2019-04-30T20:25:22.695Z,99.90
2019-04-30T20:31:28.773Z,99.90
2019-04-30T20:37:35.139Z,99.90
2019-04-30T20:43:39.693Z,99.90
2019-04-30T20:49:44.279Z,99.90
2019-04-30T20:55:49.520Z,99.90
2019-04-30T21:01:54.231Z,99.90
2019-04-30T21:07:58.774Z,99.90
2019-04-30T21:14:03.782Z,99.90
2019-04-30T21:20:09.812Z,99.90
2019-04-30T21:26:14.434Z,99.90
2019-04-30T21:32:38.289Z,99.90
2019-04-30T21:38:43.295Z,99.90
2019-04-30T21:44:47.849Z,99.90
2019-04-30T21:50:52.410Z,99.90
2019-04-30T21:56:56.986Z,99.90
2019-04-30T22:03:01.804Z,99.90
2019-04-30T22:09:09.750Z,99.90
2019-04-30T22:15:14.762Z,99.90
2019-04-30T22:21:19.332Z,99.90
2019-04-30T22:27:23.900Z,99.90
2019-04-30T22:33:29.232Z,99.90
2019-04-30T22:39:36.394Z,99.90
2019-04-30T22:45:42.604Z,99.90
2019-04-30T22:51:47.163Z,99.90
2019-04-30T22:57:51.800Z,99.90
2019-04-30T23:04:00.430Z,99.90
2019-04-30T23:10:08.028Z,99.90
2019-04-30T23:16:13.252Z,99.90
2019-04-30T23:22:17.826Z,99.90
2019-04-30T23:28:22.499Z,99.90
2019-04-30T23:34:27.141Z,99.90
2019-04-30T23:40:52.398Z,99.90
2019-04-30T23:46:57.027Z,99.90
2019-04-30T23:53:01.614Z,99.90
2019-04-30T23:59:06.252Z,99.90
